PWSweather.com
Personal Weather Stations
Station Observations

NjegusiYU

Lat: 42.43746, Lon: 18.822765

Elevation: 856

Station Type: Davis Vantage Vue

http://pljusak.com/njegusi/index.html

Latest ConditionsUpdated 3:30:00 PM GMT+01:01 Tuesday, Jul 23, 2019
Currently Today's Max Today's Min Today's Average
Temperature 81.9°F27.7°C 83.4°F28.6°C 57.9°F14.4°C 72.0°F22.2°C
Dew Point 56.5°F13.6°C 59.6°F15.3°C 53.5°F11.9°C 57.1°F13.9°C
Winds 2.0 mph W3.2 kmh W 3.0 mph -4.8 kmh - - 1.2 mph 1.9 kmh
Wind Gusts 8.0 mph12.9 kmh 10.0 mph16.1 kmh - -
Humidity 42% 94% 38% 63%
Pressure 27.19 in920.8 mb 27.27 in923.5 mb 27.19 in920.8 mb -
Hour Temp Dew Point Humidity Winds Wind Gusts Pressure Precip Precip Rate Daily Precip Total
03:30 PM 81.9°F27.7°C 56.5°F13.6°C 42% 2.0 mph W3.2 kmh W 8.0 mph12.9 kmh 27.19 in920.8 mb 0.00 in0.0 mm 0.00 in0.0 mm 0.00 in0.0 mm
03:20 PM 81.3°F27.4°C 56.6°F13.7°C 43% 1.0 mph SE1.6 kmh SE 4.0 mph6.4 kmh 27.19 in920.8 mb 0.00 in0.0 mm 0.00 in0.0 mm 0.00 in0.0 mm
03:10 PM 81.6°F27.6°C 54.9°F12.7°C 40% 1.0 mph WNW1.6 kmh WNW 4.0 mph6.4 kmh 27.19 in920.8 mb 0.00 in0.0 mm 0.00 in0.0 mm 0.00 in0.0 mm
03:00 PM 81.6°F27.6°C 55.6°F13.1°C 41% 2.0 mph SE3.2 kmh SE 7.0 mph11.3 kmh 27.19 in920.8 mb 0.00 in0.0 mm 0.00 in0.0 mm 0.00 in0.0 mm
02:50 PM 82.7°F28.2°C 58.5°F14.7°C 44% 2.0 mph ESE3.2 kmh ESE 8.0 mph12.9 kmh 27.19 in920.8 mb 0.00 in0.0 mm 0.00 in0.0 mm 0.00 in0.0 mm
02:40 PM 82.3°F27.9°C 56.9°F13.8°C 42% 1.0 mph SE1.6 kmh SE 4.0 mph6.4 kmh 27.20 in921.1 mb 0.00 in0.0 mm 0.00 in0.0 mm 0.00 in0.0 mm
02:30 PM 83.1°F28.4°C 57.6°F14.2°C 42% 2.0 mph SE3.2 kmh SE 4.0 mph6.4 kmh 27.20 in921.1 mb 0.00 in0.0 mm 0.00 in0.0 mm 0.00 in0.0 mm
02:20 PM 82.9°F28.3°C 59.3°F15.2°C 45% 2.0 mph E3.2 kmh E 7.0 mph11.3 kmh 27.19 in920.8 mb 0.00 in0.0 mm 0.00 in0.0 mm 0.00 in0.0 mm
02:10 PM 82.3°F27.9°C 55.5°F13.1°C 40% 2.0 mph E3.2 kmh E 4.0 mph6.4 kmh 27.20 in921.1 mb 0.00 in0.0 mm 0.00 in0.0 mm 0.00 in0.0 mm
02:00 PM 81.9°F27.7°C 55.2°F12.9°C 40% 1.0 mph NNE1.6 kmh NNE 5.0 mph8.0 kmh 27.20 in921.1 mb 0.00 in0.0 mm 0.00 in0.0 mm 0.00 in0.0 mm
01:50 PM 82.5°F28.1°C 55.7°F13.2°C 40% 1.0 mph NE1.6 kmh NE 6.0 mph9.7 kmh 27.20 in921.1 mb 0.00 in0.0 mm 0.00 in0.0 mm 0.00 in0.0 mm
01:40 PM 82.9°F28.3°C 59.3°F15.2°C 45% 3.0 mph SE4.8 kmh SE 6.0 mph9.7 kmh 27.20 in921.1 mb 0.00 in0.0 mm 0.00 in0.0 mm 0.00 in0.0 mm
01:30 PM 82.5°F28.1°C 54.3°F12.4°C 38% 2.0 mph NNE3.2 kmh NNE 7.0 mph11.3 kmh 27.21 in921.4 mb 0.00 in0.0 mm 0.00 in0.0 mm 0.00 in0.0 mm
01:20 PM 82.9°F28.3°C 56.1°F13.4°C 40% 2.0 mph ENE3.2 kmh ENE 5.0 mph8.0 kmh 27.21 in921.4 mb 0.00 in0.0 mm 0.00 in0.0 mm 0.00 in0.0 mm
01:10 PM 81.8°F27.7°C 55.8°F13.2°C 41% 1.0 mph NE1.6 kmh NE 7.0 mph11.3 kmh 27.20 in921.1 mb 0.00 in0.0 mm 0.00 in0.0 mm 0.00 in0.0 mm
01:00 PM 82.2°F27.9°C 56.1°F13.4°C 41% 2.0 mph SE3.2 kmh SE 6.0 mph9.7 kmh 27.21 in921.4 mb 0.00 in0.0 mm 0.00 in0.0 mm 0.00 in0.0 mm
12:50 PM 82.6°F28.1°C 57.2°F14.0°C 42% 1.0 mph ESE1.6 kmh ESE 4.0 mph6.4 kmh 27.21 in921.4 mb 0.00 in0.0 mm 0.00 in0.0 mm 0.00 in0.0 mm
12:40 PM 82.7°F28.2°C 59.2°F15.1°C 45% 2.0 mph SE3.2 kmh SE 7.0 mph11.3 kmh 27.21 in921.4 mb 0.00 in0.0 mm 0.00 in0.0 mm 0.00 in0.0 mm
12:30 PM 83.2°F28.4°C 57.7°F14.3°C 42% 2.0 mph ESE3.2 kmh ESE 8.0 mph12.9 kmh 27.22 in921.8 mb 0.00 in0.0 mm 0.00 in0.0 mm 0.00 in0.0 mm
12:20 PM 83.4°F28.6°C 55.8°F13.2°C 39% 1.0 mph SE1.6 kmh SE 2.0 mph3.2 kmh 27.22 in921.8 mb 0.00 in0.0 mm 0.00 in0.0 mm 0.00 in0.0 mm
12:10 PM 82.5°F28.1°C 56.4°F13.6°C 41% 1.0 mph WSW1.6 kmh WSW 4.0 mph6.4 kmh 27.23 in922.1 mb 0.00 in0.0 mm 0.00 in0.0 mm 0.00 in0.0 mm
12:00 PM 81.7°F27.6°C 59.5°F15.3°C 47% 3.0 mph SE4.8 kmh SE 7.0 mph11.3 kmh 27.23 in922.1 mb 0.00 in0.0 mm 0.00 in0.0 mm 0.00 in0.0 mm
11:50 AM 81.6°F27.6°C 58.8°F14.9°C 46% 3.0 mph SE4.8 kmh SE 6.0 mph9.7 kmh 27.23 in922.1 mb 0.00 in0.0 mm 0.00 in0.0 mm 0.00 in0.0 mm
11:40 AM 81.7°F27.6°C 56.3°F13.5°C 42% 1.0 mph ESE1.6 kmh ESE 6.0 mph9.7 kmh 27.23 in922.1 mb 0.00 in0.0 mm 0.00 in0.0 mm 0.00 in0.0 mm
11:30 AM 80.7°F27.1°C 57.4°F14.1°C 45% 2.0 mph E3.2 kmh E 10.0 mph16.1 kmh 27.24 in922.5 mb 0.00 in0.0 mm 0.00 in0.0 mm 0.00 in0.0 mm
11:20 AM 80.7°F27.1°C 58.6°F14.8°C 47% 3.0 mph SE4.8 kmh SE 6.0 mph9.7 kmh 27.24 in922.5 mb 0.00 in0.0 mm 0.00 in0.0 mm 0.00 in0.0 mm
11:10 AM 80.4°F26.9°C 56.5°F13.6°C 44% 2.0 mph ESE3.2 kmh ESE 7.0 mph11.3 kmh 27.24 in922.5 mb 0.00 in0.0 mm 0.00 in0.0 mm 0.00 in0.0 mm
11:00 AM 80.5°F26.9°C 57.8°F14.3°C 46% 2.0 mph SE3.2 kmh SE 5.0 mph8.0 kmh 27.24 in922.5 mb 0.00 in0.0 mm 0.00 in0.0 mm 0.00 in0.0 mm
10:50 AM 80.0°F26.7°C 53.5°F11.9°C 40% 2.0 mph SE3.2 kmh SE 5.0 mph8.0 kmh 27.24 in922.5 mb 0.00 in0.0 mm 0.00 in0.0 mm 0.00 in0.0 mm
10:40 AM 80.1°F26.7°C 57.4°F14.1°C 46% 2.0 mph ESE3.2 kmh ESE 8.0 mph12.9 kmh 27.24 in922.5 mb 0.00 in0.0 mm 0.00 in0.0 mm 0.00 in0.0 mm
10:30 AM 80.3°F26.8°C 56.4°F13.6°C 44% 1.0 mph ENE1.6 kmh ENE 4.0 mph6.4 kmh 27.24 in922.5 mb 0.00 in0.0 mm 0.00 in0.0 mm 0.00 in0.0 mm
10:20 AM 79.6°F26.4°C 58.7°F14.8°C 49% 2.0 mph ESE3.2 kmh ESE 7.0 mph11.3 kmh 27.24 in922.5 mb 0.00 in0.0 mm 0.00 in0.0 mm 0.00 in0.0 mm
10:10 AM 78.9°F26.1°C 58.7°F14.8°C 50% 3.0 mph SE4.8 kmh SE 10.0 mph16.1 kmh 27.23 in922.1 mb 0.00 in0.0 mm 0.00 in0.0 mm 0.00 in0.0 mm
10:00 AM 79.1°F26.2°C 57.1°F13.9°C 47% 2.0 mph ESE3.2 kmh ESE 6.0 mph9.7 kmh 27.23 in922.1 mb 0.00 in0.0 mm 0.00 in0.0 mm 0.00 in0.0 mm
09:50 AM 78.5°F25.8°C 56.0°F13.3°C 46% 2.0 mph 3.2 kmh 6.0 mph9.7 kmh 27.23 in922.1 mb 0.00 in0.0 mm 0.00 in0.0 mm 0.00 in0.0 mm
09:40 AM 78.1°F25.6°C 56.2°F13.4°C 47% 2.0 mph NE3.2 kmh NE 6.0 mph9.7 kmh 27.23 in922.1 mb 0.00 in0.0 mm 0.00 in0.0 mm 0.00 in0.0 mm
09:30 AM 77.8°F25.4°C 56.5°F13.6°C 48% 2.0 mph ESE3.2 kmh ESE 7.0 mph11.3 kmh 27.24 in922.5 mb 0.00 in0.0 mm 0.00 in0.0 mm 0.00 in0.0 mm
09:20 AM 77.5°F25.3°C 59.0°F15.0°C 53% 3.0 mph SE4.8 kmh SE 6.0 mph9.7 kmh 27.24 in922.5 mb 0.00 in0.0 mm 0.00 in0.0 mm 0.00 in0.0 mm
09:10 AM 77.1°F25.1°C 58.6°F14.8°C 53% 2.0 mph ESE3.2 kmh ESE 7.0 mph11.3 kmh 27.24 in922.5 mb 0.00 in0.0 mm 0.00 in0.0 mm 0.00 in0.0 mm
09:00 AM 76.4°F24.7°C 56.9°F13.8°C 51% 2.0 mph SE3.2 kmh SE 8.0 mph12.9 kmh 27.24 in922.5 mb 0.00 in0.0 mm 0.00 in0.0 mm 0.00 in0.0 mm
08:50 AM 76.1°F24.5°C 56.1°F13.4°C 50% 2.0 mph SE3.2 kmh SE 6.0 mph9.7 kmh 27.24 in922.5 mb 0.00 in0.0 mm 0.00 in0.0 mm 0.00 in0.0 mm
08:40 AM 75.9°F24.4°C 58.6°F14.8°C 55% 1.0 mph ESE1.6 kmh ESE 5.0 mph8.0 kmh 27.25 in922.8 mb 0.00 in0.0 mm 0.00 in0.0 mm 0.00 in0.0 mm
08:30 AM 75.2°F24.0°C 58.9°F14.9°C 57% 1.0 mph ESE1.6 kmh ESE 5.0 mph8.0 kmh 27.24 in922.5 mb 0.00 in0.0 mm 0.00 in0.0 mm 0.00 in0.0 mm
08:20 AM 74.9°F23.8°C 59.6°F15.3°C 59% 2.0 mph ESE3.2 kmh ESE 4.0 mph6.4 kmh 27.25 in922.8 mb 0.00 in0.0 mm 0.00 in0.0 mm 0.00 in0.0 mm
08:10 AM 74.3°F23.5°C 59.5°F15.3°C 60% 1.0 mph 1.6 kmh 6.0 mph9.7 kmh 27.25 in922.8 mb 0.00 in0.0 mm 0.00 in0.0 mm 0.00 in0.0 mm
08:00 AM 73.6°F23.1°C 57.4°F14.1°C 57% 1.0 mph 1.6 kmh 5.0 mph8.0 kmh 27.25 in922.8 mb 0.00 in0.0 mm 0.00 in0.0 mm 0.00 in0.0 mm
07:50 AM 72.8°F22.7°C 57.1°F13.9°C 58% 2.0 mph NNE3.2 kmh NNE 5.0 mph8.0 kmh 27.25 in922.8 mb 0.00 in0.0 mm 0.00 in0.0 mm 0.00 in0.0 mm
07:40 AM 73.1°F22.8°C 56.9°F13.8°C 57% 1.0 mph ENE1.6 kmh ENE 3.0 mph4.8 kmh 27.25 in922.8 mb 0.00 in0.0 mm 0.00 in0.0 mm 0.00 in0.0 mm
07:30 AM 72.7°F22.6°C 58.0°F14.4°C 60% 1.0 mph E1.6 kmh E 3.0 mph4.8 kmh 27.25 in922.8 mb 0.00 in0.0 mm 0.00 in0.0 mm 0.00 in0.0 mm
07:20 AM 72.0°F22.2°C 57.3°F14.1°C 60% 1.0 mph ENE1.6 kmh ENE 2.0 mph3.2 kmh 27.25 in922.8 mb 0.00 in0.0 mm 0.00 in0.0 mm 0.00 in0.0 mm
07:10 AM 71.9°F22.2°C 58.2°F14.6°C 62% 1.0 mph 1.6 kmh 5.0 mph8.0 kmh 27.25 in922.8 mb 0.00 in0.0 mm 0.00 in0.0 mm 0.00 in0.0 mm
07:00 AM 71.3°F21.8°C 57.6°F14.2°C 62% 1.0 mph ESE1.6 kmh ESE 3.0 mph4.8 kmh 27.25 in922.8 mb 0.00 in0.0 mm 0.00 in0.0 mm 0.00 in0.0 mm
06:50 AM 70.7°F21.5°C 57.9°F14.4°C 64% 1.0 mph ESE1.6 kmh ESE 3.0 mph4.8 kmh 27.25 in922.8 mb 0.00 in0.0 mm 0.00 in0.0 mm 0.00 in0.0 mm
06:40 AM 70.5°F21.4°C 57.7°F14.3°C 64% 1.0 mph SE1.6 kmh SE 3.0 mph4.8 kmh 27.25 in922.8 mb 0.00 in0.0 mm 0.00 in0.0 mm 0.00 in0.0 mm
06:30 AM 70.2°F21.2°C 57.4°F14.1°C 64% Calm Calm 2.0 mph3.2 kmh 27.25 in922.8 mb 0.00 in0.0 mm 0.00 in0.0 mm 0.00 in0.0 mm
06:20 AM 68.1°F20.1°C 57.1°F13.9°C 68% Calm Calm 3.0 mph4.8 kmh 27.25 in922.8 mb 0.00 in0.0 mm 0.00 in0.0 mm 0.00 in0.0 mm
06:10 AM 66.7°F19.3°C 56.6°F13.7°C 70% 1.0 mph ENE1.6 kmh ENE 3.0 mph4.8 kmh 27.25 in922.8 mb 0.00 in0.0 mm 0.00 in0.0 mm 0.00 in0.0 mm
06:00 AM 65.8°F18.8°C 56.9°F13.8°C 73% 1.0 mph 1.6 kmh 3.0 mph4.8 kmh 27.25 in922.8 mb 0.00 in0.0 mm 0.00 in0.0 mm 0.00 in0.0 mm
05:50 AM 65.1°F18.4°C 56.6°F13.7°C 74% Calm Calm 2.0 mph3.2 kmh 27.25 in922.8 mb 0.00 in0.0 mm 0.00 in0.0 mm 0.00 in0.0 mm
05:40 AM 65.6°F18.7°C 55.9°F13.3°C 71% 1.0 mph 1.6 kmh 5.0 mph8.0 kmh 27.25 in922.8 mb 0.00 in0.0 mm 0.00 in0.0 mm 0.00 in0.0 mm
05:30 AM 66.4°F19.1°C 56.3°F13.5°C 70% 3.0 mph 4.8 kmh 7.0 mph11.3 kmh 27.25 in922.8 mb 0.00 in0.0 mm 0.00 in0.0 mm 0.00 in0.0 mm
05:20 AM 66.3°F19.1°C 56.2°F13.4°C 70% 3.0 mph 4.8 kmh 7.0 mph11.3 kmh 27.25 in922.8 mb 0.00 in0.0 mm 0.00 in0.0 mm 0.00 in0.0 mm
05:10 AM 65.9°F18.8°C 56.2°F13.4°C 71% 3.0 mph NNE4.8 kmh NNE 8.0 mph12.9 kmh 27.24 in922.5 mb 0.00 in0.0 mm 0.00 in0.0 mm 0.00 in0.0 mm
05:00 AM 64.4°F18.0°C 56.3°F13.5°C 75% 1.0 mph NNE1.6 kmh NNE 5.0 mph8.0 kmh 27.24 in922.5 mb 0.00 in0.0 mm 0.00 in0.0 mm 0.00 in0.0 mm
04:50 AM 62.6°F17.0°C 56.3°F13.5°C 80% 1.0 mph SE1.6 kmh SE 3.0 mph4.8 kmh 27.24 in922.5 mb 0.00 in0.0 mm 0.00 in0.0 mm 0.00 in0.0 mm
04:40 AM 62.1°F16.7°C 56.9°F13.8°C 83% 1.0 mph ESE1.6 kmh ESE 4.0 mph6.4 kmh 27.25 in922.8 mb 0.00 in0.0 mm 0.00 in0.0 mm 0.00 in0.0 mm
04:30 AM 60.4°F15.8°C 56.2°F13.4°C 86% 1.0 mph SSE1.6 kmh SSE 3.0 mph4.8 kmh 27.25 in922.8 mb 0.00 in0.0 mm 0.00 in0.0 mm 0.00 in0.0 mm
04:20 AM 60.0°F15.6°C 56.1°F13.4°C 87% Calm Calm 2.0 mph3.2 kmh 27.25 in922.8 mb 0.00 in0.0 mm 0.00 in0.0 mm 0.00 in0.0 mm
04:10 AM 59.6°F15.3°C 56.0°F13.3°C 88% Calm Calm 1.0 mph1.6 kmh 27.25 in922.8 mb 0.00 in0.0 mm 0.00 in0.0 mm 0.00 in0.0 mm
04:00 AM 59.6°F15.3°C 56.0°F13.3°C 88% Calm Calm 1.0 mph1.6 kmh 27.24 in922.5 mb 0.00 in0.0 mm 0.00 in0.0 mm 0.00 in0.0 mm
03:50 AM 60.1°F15.6°C 56.2°F13.4°C 87% Calm Calm 2.0 mph3.2 kmh 27.24 in922.5 mb 0.00 in0.0 mm 0.00 in0.0 mm 0.00 in0.0 mm
03:40 AM 60.6°F15.9°C 56.4°F13.6°C 86% Calm Calm 1.0 mph1.6 kmh 27.24 in922.5 mb 0.00 in0.0 mm 0.00 in0.0 mm 0.00 in0.0 mm
03:30 AM 61.4°F16.3°C 56.8°F13.8°C 85% Calm Calm 2.0 mph3.2 kmh 27.25 in922.8 mb 0.00 in0.0 mm 0.00 in0.0 mm 0.00 in0.0 mm
03:20 AM 60.6°F15.9°C 57.0°F13.9°C 88% Calm Calm 2.0 mph3.2 kmh 27.25 in922.8 mb 0.00 in0.0 mm 0.00 in0.0 mm 0.00 in0.0 mm
03:10 AM 59.3°F15.2°C 57.0°F13.9°C 92% Calm Calm 2.0 mph3.2 kmh 27.25 in922.8 mb 0.00 in0.0 mm 0.00 in0.0 mm 0.00 in0.0 mm
03:00 AM 58.8°F14.9°C 56.8°F13.8°C 93% Calm Calm 1.0 mph1.6 kmh 27.25 in922.8 mb 0.00 in0.0 mm 0.00 in0.0 mm 0.00 in0.0 mm
02:50 AM 58.3°F14.6°C 56.6°F13.7°C 94% Calm Calm 2.0 mph3.2 kmh 27.25 in922.8 mb 0.00 in0.0 mm 0.00 in0.0 mm 0.00 in0.0 mm
02:40 AM 57.9°F14.4°C 56.2°F13.4°C 94% Calm Calm 1.0 mph1.6 kmh 27.24 in922.5 mb 0.00 in0.0 mm 0.00 in0.0 mm 0.00 in0.0 mm
02:30 AM 58.2°F14.6°C 56.5°F13.6°C 94% Calm Calm -- 27.25 in922.8 mb 0.00 in0.0 mm 0.00 in0.0 mm 0.00 in0.0 mm
02:20 AM 58.2°F14.6°C 56.5°F13.6°C 94% Calm Calm 1.0 mph1.6 kmh 27.25 in922.8 mb 0.00 in0.0 mm 0.00 in0.0 mm 0.00 in0.0 mm
02:10 AM 58.3°F14.6°C 56.0°F13.3°C 92% Calm Calm -- 27.25 in922.8 mb 0.00 in0.0 mm 0.00 in0.0 mm 0.00 in0.0 mm
02:00 AM 59.0°F15.0°C 56.7°F13.7°C 92% Calm Calm -- 27.25 in922.8 mb 0.00 in0.0 mm 0.00 in0.0 mm 0.00 in0.0 mm
01:50 AM 59.6°F15.3°C 56.7°F13.7°C 90% Calm Calm -- 27.26 in923.1 mb 0.00 in0.0 mm 0.00 in0.0 mm 0.00 in0.0 mm
01:40 AM 60.3°F15.7°C 57.0°F13.9°C 89% Calm Calm -- 27.26 in923.1 mb 0.00 in0.0 mm 0.00 in0.0 mm 0.00 in0.0 mm
01:30 AM 61.2°F16.2°C 57.3°F14.1°C 87% Calm Calm -- 27.26 in923.1 mb 0.00 in0.0 mm 0.00 in0.0 mm 0.00 in0.0 mm
01:20 AM 62.0°F16.7°C 57.4°F14.1°C 85% Calm Calm -- 27.26 in923.1 mb 0.00 in0.0 mm 0.00 in0.0 mm 0.00 in0.0 mm
01:10 AM 62.4°F16.9°C 57.8°F14.3°C 85% Calm Calm -- 27.26 in923.1 mb 0.00 in0.0 mm 0.00 in0.0 mm 0.00 in0.0 mm
01:00 AM 62.6°F17.0°C 58.0°F14.4°C 85% Calm Calm 2.0 mph3.2 kmh 27.27 in923.5 mb 0.00 in0.0 mm 0.00 in0.0 mm 0.00 in0.0 mm
12:50 AM 63.4°F17.4°C 58.1°F14.5°C 83% Calm Calm 2.0 mph3.2 kmh 27.26 in923.1 mb 0.00 in0.0 mm 0.00 in0.0 mm 0.00 in0.0 mm
12:40 AM 64.2°F17.9°C 58.2°F14.6°C 81% 1.0 mph SE1.6 kmh SE 3.0 mph4.8 kmh 27.27 in923.5 mb 0.00 in0.0 mm 0.00 in0.0 mm 0.00 in0.0 mm
12:30 AM 64.2°F17.9°C 58.2°F14.6°C 81% Calm Calm 3.0 mph4.8 kmh 27.27 in923.5 mb 0.00 in0.0 mm 0.00 in0.0 mm 0.00 in0.0 mm
12:20 AM 66.0°F18.9°C 58.2°F14.6°C 76% 1.0 mph NNE1.6 kmh NNE 8.0 mph12.9 kmh 27.27 in923.5 mb 0.00 in0.0 mm 0.00 in0.0 mm 0.00 in0.0 mm
12:10 AM 65.7°F18.7°C 58.6°F14.8°C 78% Calm Calm 3.0 mph4.8 kmh 27.27 in923.5 mb 0.00 in0.0 mm 0.00 in0.0 mm 0.00 in0.0 mm
12:00 AM 66.0°F18.9°C 58.9°F14.9°C 78% Calm Calm 2.0 mph3.2 kmh 27.27 in923.5 mb 0.00 in0.0 mm 0.00 in0.0 mm 0.00 in0.0 mm